Terminal Aerodrome Forecast
Issued by NWS Charleston, WV

Current Version | Previous Version | Graphics & Text | Print | Product List | Glossary On
Versions: 1 2 3 4 5 6 7 8 9 10 11 12 13 14 15 16 17 18 19 20 21 22
835
FTUS41 KRLX 130902 AAA
TAFBKW
TAF AMD
KBKW 130902Z 1309/1406 31012KT 2SM -SHSN OVC020
     FM131100 31015KT 5SM -SHSN BKN025
     FM131400 31012G22KT P6SM SCT030
     FM140400 31008KT P6SM FEW050=

USA.gov is the U.S. government's official web portal to all federal, state and local government web resources and services.